Time;durP1;ratioP1;P1;durP2;ratioP2;P2;SDS_P1;SDS_P2;PMS_P1;PMS_P2;Temp;Humidity;BMP_temperature;BMP_pressure;BME280_temperature;BME280_humidity;BME280_pressure;Samples;Min_cycle;Max_cycle;Signal;HPM_P1;HPM_P2
2023/02/22 00:01:07;;;;;;;105.35;35.42;;;6.50;99.90;;;-144.05;89.09;57052.75;5019854;28;20030;-77
2023/02/22 00:03:33;;;;;;;114.90;35.50;;;6.40;99.90;;;-144.05;89.20;57044.25;5019202;28;20025;-78
2023/02/22 00:06:04;;;;;;;106.82;31.60;;;6.40;99.90;;;-144.05;88.96;57027.25;5019212;28;20107;-77
2023/02/22 00:08:35;;;;;;;127.30;37.03;;;6.40;99.90;;;-144.05;89.34;57044.25;5018641;28;20080;-78
2023/02/22 00:11:08;;;;;;;125.63;36.75;;;6.30;99.90;;;-144.05;89.34;57054.88;5018944;28;20058;-78
2023/02/22 00:13:37;;;;;;;110.88;34.97;;;6.30;99.90;;;-144.05;89.01;57031.50;5018671;28;20030;-77
2023/02/22 00:16:04;;;;;;;118.43;35.40;;;6.20;99.90;;;-144.05;89.69;57035.75;5019355;28;20030;-78
2023/02/22 00:18:30;;;;;;;137.82;38.15;;;6.30;99.90;;;-144.05;90.37;57042.13;5018014;28;20045;-78
2023/02/22 00:20:59;;;;;;;137.38;38.50;;;6.40;99.90;;;-144.05;90.03;57042.13;4999806;28;20025;-77
2023/02/22 00:23:30;;;;;;;126.40;37.85;;;6.50;99.90;;;-144.05;89.71;57052.75;5018208;28;20061;-78
2023/02/22 00:25:59;;;;;;;147.48;39.17;;;6.70;99.90;;;-144.05;90.14;57035.75;5018372;28;20110;-77
2023/02/22 00:28:25;;;;;;;120.22;37.55;;;6.70;99.90;;;-144.05;89.82;57052.75;5018410;28;20045;-78
2023/02/22 00:30:53;;;;;;;127.30;34.95;;;6.70;99.90;;;-144.05;89.96;57029.38;5019245;28;20041;-78
2023/02/22 00:33:19;;;;;;;131.60;37.08;;;6.80;99.90;;;-144.05;89.67;56997.50;5018853;28;20022;-78
2023/02/22 00:35:45;;;;;;;129.25;39.50;;;6.80;99.90;;;-144.05;89.68;57023.00;5018575;28;20049;-78
2023/02/22 00:38:15;;;;;;;127.13;36.53;;;6.80;99.90;;;-144.05;90.02;57031.50;5018254;28;20022;-78
2023/02/22 00:40:41;;;;;;;119.28;37.03;;;6.80;99.90;;;-144.05;89.97;57035.75;5017589;28;20030;-78
2023/02/22 00:43:08;;;;;;;112.80;33.03;;;6.80;99.90;;;-144.05;89.76;57031.50;5017314;28;20018;-78
2023/02/22 00:45:36;;;;;;;143.50;38.67;;;6.80;99.90;;;-144.05;89.96;57040.00;5018140;28;20029;-77
2023/02/22 00:48:05;;;;;;;142.32;39.88;;;6.80;99.90;;;-144.05;89.99;57035.75;4998922;28;20029;-78
2023/02/22 00:50:32;;;;;;;127.00;35.10;;;6.80;99.90;;;-144.05;90.09;57025.13;4999646;28;20046;-78
2023/02/22 00:53:02;;;;;;;138.88;36.03;;;6.80;99.90;;;-144.05;89.82;57050.63;5000331;28;20064;-77
2023/02/22 00:55:35;;;;;;;130.80;34.47;;;6.80;99.90;;;-144.05;89.90;57033.63;5017967;28;20117;-78
2023/02/22 00:58:03;;;;;;;125.95;35.25;;;6.80;99.90;;;-144.05;89.84;57001.75;5017382;28;20034;-77
2023/02/22 01:00:38;;;;;;;129.50;37.65;;;6.80;99.90;;;-144.05;89.65;57018.75;5016913;28;20029;-78
2023/02/22 01:03:09;;;;;;;131.88;37.17;;;6.80;99.90;;;-144.05;89.63;57014.50;5016145;28;20022;-77
2023/02/22 01:05:37;;;;;;;127.88;34.70;;;6.70;99.90;;;-144.05;89.58;57014.50;5000184;28;20132;-78
2023/02/22 01:08:06;;;;;;;129.52;36.53;;;6.70;99.90;;;-144.05;89.58;57027.25;5022176;28;20026;-77
2023/02/22 01:10:33;;;;;;;125.55;35.65;;;6.70;99.90;;;-144.05;89.20;57059.09;5017875;28;20042;-77
2023/02/22 01:13:03;;;;;;;136.68;37.13;;;6.70;99.90;;;-144.05;89.36;57014.50;5015727;28;20493;-78
2023/02/22 01:15:30;;;;;;;142.05;38.75;;;6.70;99.90;;;-144.05;90.22;57033.63;5015740;28;20080;-77
2023/02/22 01:17:58;;;;;;;139.05;39.40;;;6.70;99.90;;;-144.05;91.10;57044.25;5016591;28;20030;-77
2023/02/22 01:20:27;;;;;;;146.32;39.10;;;6.70;99.90;;;-144.05;90.55;57027.25;4999216;28;20026;-78
2023/02/22 01:22:58;;;;;;;138.85;37.28;;;6.70;99.90;;;-144.05;89.81;57035.75;5017764;28;20026;-78
2023/02/22 01:25:29;;;;;;;129.88;35.28;;;6.70;99.90;;;-144.05;89.91;57023.00;5017447;28;20034;-78
2023/02/22 01:27:58;;;;;;;150.85;37.58;;;6.80;99.90;;;-144.05;89.75;57018.75;5016263;28;20132;-78
2023/02/22 01:30:34;;;;;;;134.40;37.88;;;6.80;99.90;;;-144.05;90.07;57027.25;5015070;28;20053;-78
2023/02/22 01:33:05;;;;;;;134.48;35.55;;;6.80;99.90;;;-144.05;90.03;57044.25;5015394;28;20508;-77
2023/02/22 01:35:37;;;;;;;128.82;33.72;;;6.80;99.90;;;-144.05;90.10;57042.13;5016576;28;20030;-77
2023/02/22 01:38:03;;;;;;;146.85;34.85;;;6.70;99.90;;;-144.05;90.67;57031.50;5016397;28;20105;-79
2023/02/22 01:40:35;;;;;;;137.43;35.75;;;6.70;99.90;;;-144.05;90.39;57040.00;4999148;28;20033;-78
2023/02/22 01:43:22;;;;;;;121.93;33.78;;;6.70;99.90;;;-144.05;90.53;57035.75;5017170;28;20034;-78
2023/02/22 01:46:00;;;;;;;133.63;33.78;;;6.70;99.90;;;-144.05;90.49;57040.00;5016930;28;20401;-78
2023/02/22 01:49:05;;;;;;;117.45;34.05;;;6.70;99.90;;;-144.05;90.06;57010.25;5016558;28;20030;-78
2023/02/22 01:51:44;;;;;;;122.82;35.78;;;6.70;99.90;;;-144.05;90.30;57033.63;5011795;28;20042;-78
2023/02/22 01:54:40;;;;;;;106.38;31.80;;;6.70;99.90;;;-144.05;89.97;57042.13;5016185;28;20453;-78
2023/02/22 01:57:30;;;;;;;124.85;35.08;;;6.70;99.90;;;-144.05;89.83;57035.75;5015532;28;20033;-78
2023/02/22 02:00:09;;;;;;;123.65;33.35;;;6.70;99.90;;;-144.05;89.81;57018.75;5014232;28;20048;-77
2023/02/22 02:02:46;;;;;;;152.35;36.50;;;6.70;99.90;;;-144.05;89.97;57014.50;5014469;28;20029;-78
2023/02/22 02:05:13;;;;;;;108.63;33.35;;;6.70;99.90;;;-144.05;89.79;57018.75;5014158;28;20092;-77
2023/02/22 02:07:40;;;;;;;125.15;33.03;;;6.70;99.90;;;-144.05;89.77;57023.00;5014669;28;20029;-78
2023/02/22 02:10:14;;;;;;;149.23;33.42;;;6.60;99.90;;;-144.05;89.92;57025.13;5060461;22;20044;-81
2023/02/22 02:12:48;;;;;;;132.55;35.38;;;6.60;99.90;;;-144.05;89.93;57018.75;5031884;28;20036;-84
2023/02/22 02:15:30;;;;;;;124.38;33.63;;;6.60;99.90;;;-144.05;89.91;57042.13;5035578;28;20079;-80
2023/02/22 02:18:06;;;;;;;159.45;37.08;;;6.60;99.90;;;-144.05;90.12;57033.63;5035127;28;20029;-81
2023/02/22 02:21:25;;;;;;;164.05;33.38;;;6.60;99.90;;;-144.05;90.20;57018.75;5039387;28;20468;-81
2023/02/22 02:24:03;;;;;;;113.35;30.77;;;6.60;99.90;;;-144.05;89.84;57020.88;5024345;28;20044;-83
2023/02/22 02:26:55;;;;;;;176.00;30.83;;;6.50;99.90;;;-144.05;89.96;57048.50;5023438;28;20026;-79
2023/02/22 02:29:42;;;;;;;143.18;29.23;;;6.50;99.90;;;-144.05;90.01;57046.38;5023627;28;20029;-83
2023/02/22 02:32:40;;;;;;;136.20;30.60;;;6.40;99.90;;;-144.05;90.10;57014.50;5022631;28;20029;-81
2023/02/22 02:35:36;;;;;;;150.27;31.35;;;6.40;99.90;;;-144.05;89.84;57052.75;5038222;28;20025;-81
2023/02/22 02:38:42;;;;;;;111.35;29.85;;;6.40;99.90;;;-144.05;89.99;57052.75;5037495;28;20113;-82
2023/02/22 02:41:29;;;;;;;148.68;30.10;;;6.30;99.90;;;-144.05;89.74;57052.75;5023396;28;20116;-80
2023/02/22 02:44:14;;;;;;;154.65;32.88;;;6.30;99.90;;;-144.05;89.67;57023.00;5040319;28;20060;-82
2023/02/22 02:47:25;;;;;;;213.85;37.63;;;6.40;99.90;;;-144.05;89.79;57044.25;5041020;28;20026;-82
2023/02/22 02:50:07;;;;;;;268.25;39.85;;;6.40;99.90;;;-144.05;89.75;57061.22;5040887;28;20053;-82
2023/02/22 02:52:38;;;;;;;147.95;31.27;;;6.40;99.90;;;-144.05;89.88;57050.63;5022676;28;20052;-81
2023/02/22 02:55:10;;;;;;;169.25;34.38;;;6.40;99.90;;;-144.05;89.81;57027.25;5040509;28;20460;-81
2023/02/22 02:57:37;;;;;;;84.43;26.20;;;6.40;99.90;;;-144.05;89.95;57050.63;5021198;28;20443;-80
2023/02/22 03:00:22;;;;;;;112.00;28.42;;;6.30;99.90;;;-144.05;89.86;57033.63;5022061;28;20033;-82
2023/02/22 03:03:09;;;;;;;96.82;26.00;;;6.30;99.90;;;-144.05;89.97;57033.63;5040061;28;20029;-80
2023/02/22 03:06:00;;;;;;;74.45;22.13;;;6.30;99.90;;;-144.05;90.00;57014.50;5042463;28;20033;-81
2023/02/22 03:08:49;;;;;;;119.32;26.35;;;6.40;99.90;;;-144.05;90.06;57023.00;5043916;28;20383;-82
2023/02/22 03:11:34;;;;;;;121.50;27.35;;;6.30;99.90;;;-144.05;90.12;57048.50;5044512;28;20037;-81
2023/02/22 03:14:10;;;;;;;92.15;24.67;;;6.30;99.90;;;-144.05;89.81;57044.25;5043343;28;20036;-81
2023/02/22 03:17:03;;;;;;;113.43;23.45;;;6.20;99.90;;;-144.05;89.71;57046.38;5043521;28;20034;-82
2023/02/22 03:19:46;;;;;;;104.40;24.17;;;6.10;99.90;;;-144.05;89.61;57042.13;5043286;28;20028;-82
2023/02/22 03:22:32;;;;;;;125.85;26.10;;;6.10;99.90;;;-144.05;89.65;57031.50;5042759;28;20030;-82
2023/02/22 03:25:52;;;;;;;93.43;25.83;;;6.00;99.90;;;-144.05;89.67;57031.50;5044062;28;20443;-82
2023/02/22 03:28:25;;;;;;;125.43;27.60;;;6.10;99.90;;;-144.05;89.81;57044.25;5016385;28;20045;-82
2023/02/22 03:31:16;;;;;;;89.07;25.38;;;6.10;99.90;;;-144.05;89.72;57035.75;5043897;28;20033;-80
2023/02/22 03:33:54;;;;;;;148.88;29.17;;;6.10;99.90;;;-144.05;90.35;57018.75;5043775;28;20374;-82
2023/02/22 03:36:48;;;;;;;133.43;27.25;;;6.10;99.90;;;-144.05;89.95;57059.09;5025482;28;20025;-81
2023/02/22 03:39:19;;;;;;;160.88;27.15;;;6.10;99.90;;;-144.05;90.39;57044.25;5041505;28;20034;-80
2023/02/22 03:41:51;;;;;;;98.40;21.45;;;6.00;99.90;;;-144.05;90.24;57023.00;5041313;28;20037;-80
2023/02/22 03:44:26;;;;;;;180.25;26.77;;;6.00;99.90;;;-144.05;90.44;57025.13;5024136;28;20581;-81
2023/02/22 03:47:00;;;;;;;144.15;26.20;;;6.00;99.90;;;-144.05;90.22;57042.13;5042829;28;20033;-79
2023/02/22 03:49:45;;;;;;;111.80;24.80;;;5.90;99.90;;;-144.05;90.38;57052.75;5023564;28;20420;-82
2023/02/22 03:52:12;;;;;;;102.00;23.05;;;5.90;99.90;;;-144.05;90.24;57033.63;5023615;28;20421;-83
2023/02/22 03:54:39;;;;;;;113.82;21.30;;;5.90;99.90;;;-144.05;89.67;57052.75;5041583;28;20104;-81
2023/02/22 03:57:26;;;;;;;88.28;18.98;;;5.80;99.90;;;-144.05;89.57;57040.00;5041344;28;20041;-81
2023/02/22 03:59:52;;;;;;;50.92;17.95;;;5.70;99.90;;;-144.05;89.49;57044.25;5041681;28;20033;-81
2023/02/22 04:02:18;;;;;;;69.13;19.67;;;5.70;99.90;;;-144.05;89.50;57031.50;5024168;28;20025;-81
2023/02/22 04:04:46;;;;;;;66.28;17.85;;;5.60;99.90;;;-144.05;89.63;57065.47;5040215;28;20084;-81
2023/02/22 04:07:13;;;;;;;89.82;21.35;;;5.50;99.90;;;-144.05;89.76;57044.25;5022449;28;20559;-79
2023/02/22 04:09:38;;;;;;;80.47;19.25;;;5.50;99.90;;;-144.05;89.64;57048.50;5022802;28;20034;-80
2023/02/22 04:12:05;;;;;;;64.18;19.13;;;5.50;99.90;;;-144.05;89.57;57035.75;5024911;28;20483;-81
2023/02/22 04:14:30;;;;;;;87.40;20.20;;;5.40;99.90;;;-144.05;89.47;57052.75;5025096;28;20387;-80
2023/02/22 04:16:57;;;;;;;109.13;21.27;;;5.40;99.90;;;-144.05;89.52;57059.09;5042608;28;20017;-80
2023/02/22 04:19:23;;;;;;;72.75;19.40;;;5.50;99.90;;;-144.05;89.63;57048.50;5042398;28;20080;-81
2023/02/22 04:21:49;;;;;;;104.97;21.35;;;5.40;99.90;;;-144.05;89.41;57035.75;5042960;28;20029;-82
2023/02/22 04:24:15;;;;;;;59.42;17.17;;;5.40;99.90;;;-144.05;89.58;57056.97;5040241;28;20034;-79
2023/02/22 04:26:41;;;;;;;92.07;19.65;;;5.40;99.90;;;-144.05;89.83;57044.25;5038747;28;20051;-81
2023/02/22 04:29:07;;;;;;;42.05;15.98;;;5.40;99.90;;;-144.05;89.58;57069.72;5022754;28;20033;-80
2023/02/22 04:31:33;;;;;;;69.68;17.77;;;5.40;99.90;;;-144.05;89.58;57048.50;5040860;28;20037;-81
2023/02/22 04:34:02;;;;;;;68.20;18.27;;;5.40;99.90;;;-144.05;89.62;57069.72;5023252;28;20025;-80
2023/02/22 04:36:30;;;;;;;48.15;16.55;;;5.40;99.90;;;-144.05;89.40;57052.75;5041561;28;20052;-80
2023/02/22 04:38:58;;;;;;;55.72;17.05;;;5.40;99.90;;;-144.05;89.34;57059.09;5041591;28;20029;-82
2023/02/22 04:41:24;;;;;;;45.05;16.05;;;5.30;99.90;;;-144.05;89.19;57065.47;5040061;28;20049;-80
2023/02/22 04:43:50;;;;;;;67.53;17.40;;;5.20;99.90;;;-144.05;89.33;57054.88;5040243;28;20044;-81
2023/02/22 04:46:16;;;;;;;52.65;15.70;;;5.20;99.90;;;-144.05;89.41;57073.97;5022187;28;20025;-82
2023/02/22 04:48:42;;;;;;;44.65;14.10;;;5.10;99.90;;;-144.05;89.08;57065.47;5039738;28;20413;-82
2023/02/22 04:51:09;;;;;;;44.45;14.57;;;5.10;99.90;;;-144.05;89.22;57063.34;5022760;28;20034;-80
2023/02/22 04:53:35;;;;;;;31.50;12.52;;;5.00;99.90;;;-144.05;88.98;57048.50;5040899;28;20404;-80
2023/02/22 04:56:01;;;;;;;49.80;14.95;;;4.90;99.90;;;-144.05;89.06;57031.50;5040351;28;20034;-80
2023/02/22 04:58:27;;;;;;;44.90;13.38;;;4.90;99.90;;;-144.05;88.95;57082.47;5039795;28;20021;-79
2023/02/22 05:00:53;;;;;;;42.15;13.10;;;4.80;99.90;;;-144.05;88.92;57063.34;5021666;28;20429;-83
2023/02/22 05:03:19;;;;;;;72.63;16.60;;;4.90;99.90;;;-144.05;89.18;57061.22;5041183;28;20377;-80
2023/02/22 05:05:45;;;;;;;26.50;11.50;;;4.80;99.90;;;-144.05;88.89;57063.34;5041982;28;20103;-81
2023/02/22 05:08:11;;;;;;;59.67;13.50;;;4.70;99.90;;;-144.05;89.11;57054.88;5025747;28;20032;-79
2023/02/22 05:10:37;;;;;;;37.40;12.90;;;4.70;99.90;;;-144.05;89.04;57065.47;5039974;28;20053;-81
2023/02/22 05:13:04;;;;;;;69.35;15.13;;;4.70;99.90;;;-144.05;89.08;57040.00;5023143;28;20396;-81
2023/02/22 05:15:31;;;;;;;57.85;14.20;;;4.70;99.90;;;-144.05;89.02;57069.72;5023160;28;20437;-82
2023/02/22 05:17:57;;;;;;;75.07;13.88;;;4.70;99.90;;;-144.05;89.20;57050.63;5022904;28;20025;-81
2023/02/22 05:20:31;;;;;;;71.70;13.93;;;4.70;99.90;;;-144.05;89.04;57059.09;5022929;28;20036;-79
2023/02/22 05:23:00;;;;;;;48.05;12.13;;;4.70;99.90;;;-144.05;89.03;57069.72;5040104;28;20539;-80
2023/02/22 05:25:27;;;;;;;92.57;15.60;;;4.80;99.90;;;-144.05;89.14;57054.88;5040374;28;20037;-79
2023/02/22 05:28:17;;;;;;;31.23;13.02;;;4.80;99.90;;;-144.05;89.09;57078.22;5039017;28;20059;-82
2023/02/22 05:30:44;;;;;;;86.05;16.83;;;4.70;99.90;;;-144.05;88.84;57071.84;5039252;28;20117;-82
2023/02/22 05:33:10;;;;;;;52.75;14.82;;;4.70;99.90;;;-144.05;89.05;57040.00;5021231;28;20124;-81
2023/02/22 05:35:37;;;;;;;75.57;15.25;;;4.80;99.90;;;-144.05;88.75;57061.22;5039346;28;20044;-81
2023/02/22 05:38:04;;;;;;;45.00;13.90;;;4.80;99.90;;;-144.05;89.15;57014.50;5040566;28;20446;-82
2023/02/22 05:40:31;;;;;;;55.95;15.60;;;4.80;99.90;;;-144.05;88.99;57044.25;5023304;28;20397;-82
2023/02/22 05:42:59;;;;;;;83.47;17.10;;;4.80;99.90;;;-144.05;89.21;57073.97;5040791;28;20144;-81
2023/02/22 05:45:28;;;;;;;38.92;13.60;;;4.90;99.90;;;-144.05;89.14;57052.75;5023127;28;20044;-81
2023/02/22 05:47:54;;;;;;;116.03;16.85;;;4.90;99.90;;;-144.05;88.93;57052.75;5020868;28;20029;-81
2023/02/22 05:50:21;;;;;;;110.03;16.88;;;4.90;99.90;;;-144.05;89.09;57063.34;5038049;28;20032;-83
2023/02/22 05:52:48;;;;;;;42.50;12.63;;;4.90;99.90;;;-144.05;89.04;57050.63;5021632;28;20095;-81
2023/02/22 05:55:19;;;;;;;84.57;14.63;;;4.80;99.90;;;-144.05;88.58;57059.09;5039910;28;20089;-82
2023/02/22 05:57:46;;;;;;;57.45;12.85;;;4.80;99.90;;;-144.05;88.74;57086.72;5021738;28;20060;-82
2023/02/22 06:00:22;;;;;;;34.88;13.00;;;4.80;99.90;;;-144.05;88.95;57035.75;5040073;28;20033;-82
2023/02/22 06:03:07;;;;;;;112.10;17.75;;;4.80;99.90;;;-144.05;89.01;57065.47;5038722;28;20060;-80
2023/02/22 06:05:34;;;;;;;71.68;12.05;;;4.80;99.90;;;-144.05;88.98;57069.72;5039453;28;20029;-80
2023/02/22 06:08:01;;;;;;;69.47;12.82;;;4.80;99.90;;;-144.05;88.82;57059.09;5041807;28;20026;-77
2023/02/22 06:10:29;;;;;;;114.35;16.08;;;4.70;99.90;;;-144.05;88.83;57059.09;5042046;28;20037;-82
2023/02/22 06:12:56;;;;;;;55.22;12.13;;;4.60;99.90;;;-144.05;88.84;57059.09;5041579;28;20164;-82
2023/02/22 06:15:25;;;;;;;71.03;14.15;;;4.70;99.90;;;-144.05;88.96;57061.22;5041460;28;20026;-82
2023/02/22 06:17:56;;;;;;;58.20;13.25;;;4.70;99.90;;;-144.05;88.97;57063.34;5041539;28;20025;-82
2023/02/22 06:20:26;;;;;;;75.90;14.52;;;4.70;99.90;;;-144.05;89.11;57056.97;5022593;28;20037;-84
2023/02/22 06:22:56;;;;;;;58.00;13.85;;;4.70;99.90;;;-144.05;89.04;57069.72;5041205;28;20029;-82
2023/02/22 06:25:29;;;;;;;32.53;11.88;;;4.70;99.90;;;-144.05;89.06;57061.22;5040642;28;20052;-81
2023/02/22 06:27:55;;;;;;;101.25;18.52;;;4.60;99.90;;;-144.05;88.84;57046.38;5024711;28;20038;-82
2023/02/22 06:30:25;;;;;;;28.60;11.80;;;4.70;99.90;;;-144.05;88.79;57056.97;5040159;28;20034;-81
2023/02/22 06:32:52;;;;;;;50.47;12.80;;;4.70;99.90;;;-144.05;88.91;57052.75;5041461;28;20033;-81
2023/02/22 06:35:18;;;;;;;52.72;13.68;;;4.60;99.90;;;-144.05;88.84;57086.72;5040010;28;20033;-80
2023/02/22 06:37:44;;;;;;;50.25;13.52;;;4.60;99.90;;;-144.05;88.83;57054.88;5036377;28;20469;-78
2023/02/22 06:40:12;;;;;;;73.82;15.32;;;4.60;99.90;;;-144.05;88.91;57080.34;5018543;28;20034;-81
2023/02/22 06:42:39;;;;;;;75.80;13.95;;;4.60;99.90;;;-144.05;88.91;57048.50;5039460;28;20091;-75
2023/02/22 06:45:06;;;;;;;39.70;12.50;;;4.60;99.90;;;-144.05;88.81;57065.47;5022816;28;20033;-83
2023/02/22 06:47:32;;;;;;;28.35;10.15;;;4.60;99.90;;;-144.05;88.69;57040.00;5040238;28;20099;-80
2023/02/22 06:49:59;;;;;;;47.50;12.27;;;4.60;99.90;;;-144.05;88.78;57059.09;5022041;28;20485;-81
2023/02/22 06:52:26;;;;;;;34.55;12.00;;;4.60;99.90;;;-144.05;89.00;57067.59;5041867;28;20029;-81
2023/02/22 06:54:52;;;;;;;25.25;10.20;;;4.60;99.90;;;-144.05;88.96;57046.38;5021738;28;20029;-79
2023/02/22 06:57:18;;;;;;;60.92;13.23;;;4.60;99.90;;;-144.05;88.90;57046.38;5041355;28;20093;-79
2023/02/22 06:59:44;;;;;;;27.33;11.15;;;4.50;99.90;;;-144.05;88.67;57046.38;5044878;28;20090;-79
2023/02/22 07:02:15;;;;;;;39.85;12.63;;;4.60;99.90;;;-144.05;88.97;57056.97;5046100;28;20021;-79
2023/02/22 07:04:41;;;;;;;45.15;12.90;;;4.60;99.90;;;-144.05;88.68;57076.09;5046910;28;20455;-81
2023/02/22 07:07:07;;;;;;;31.35;12.07;;;4.60;99.90;;;-144.05;88.70;57061.22;5029842;28;20040;-81
2023/02/22 07:09:33;;;;;;;43.40;13.35;;;4.70;99.90;;;-144.05;88.76;57050.63;5047260;28;20056;-81
2023/02/22 07:11:59;;;;;;;42.90;13.25;;;4.70;99.90;;;-144.05;88.83;57050.63;5047937;28;20029;-79
2023/02/22 07:14:25;;;;;;;35.35;13.55;;;4.70;99.90;;;-144.05;88.85;57046.38;5029641;28;20124;-79
2023/02/22 07:16:50;;;;;;;33.97;11.98;;;4.70;99.90;;;-144.05;88.84;57059.09;5046614;28;20040;-81
2023/02/22 07:19:16;;;;;;;31.73;12.50;;;4.70;99.90;;;-144.05;88.58;57069.72;5027067;28;20382;-80
2023/02/22 07:21:42;;;;;;;47.35;13.68;;;4.70;99.90;;;-144.05;89.07;57054.88;5028899;28;20033;-79
2023/02/22 07:24:08;;;;;;;24.13;12.02;;;4.80;99.90;;;-144.05;88.78;57056.97;5046764;28;20033;-80
2023/02/22 07:26:40;;;;;;;48.20;13.32;;;4.80;99.90;;;-144.05;88.84;57084.59;5027870;28;20059;-79
2023/02/22 07:29:06;;;;;;;46.42;13.55;;;4.90;99.90;;;-144.05;88.73;57052.75;5029633;28;20053;-78
2023/02/22 07:31:38;;;;;;;48.97;14.77;;;4.90;99.90;;;-144.05;88.58;57044.25;5029796;28;20484;-79
2023/02/22 07:34:04;;;;;;;65.97;15.88;;;5.00;99.90;;;-144.05;88.59;57054.88;5047863;28;20026;-80
2023/02/22 07:36:30;;;;;;;35.17;14.27;;;5.00;99.90;;;-144.05;88.79;57061.22;5048177;28;20034;-80
2023/02/22 07:38:56;;;;;;;74.22;18.73;;;5.10;99.90;;;-144.05;88.91;57056.97;5048026;28;20045;-81
2023/02/22 07:41:22;;;;;;;79.60;18.88;;;5.10;99.90;;;-144.05;88.76;57050.63;5046190;28;20025;-79
2023/02/22 07:43:48;;;;;;;78.63;17.55;;;5.10;99.90;;;-144.05;88.36;57056.97;5045786;28;20105;-79
2023/02/22 07:46:14;;;;;;;79.25;19.67;;;5.10;99.90;;;-144.05;88.12;57035.75;5045799;28;20135;-79
2023/02/22 07:48:41;;;;;;;79.25;17.80;;;5.10;99.90;;;-144.05;88.02;57040.00;5045943;28;21882;-81
2023/02/22 07:51:08;;;;;;;58.17;16.33;;;5.10;99.90;;;-144.05;88.08;57054.88;5044446;28;20026;-79
2023/02/22 07:53:34;;;;;;;70.75;18.90;;;5.20;99.90;;;-144.05;88.27;57063.34;5044999;28;20040;-80
2023/02/22 07:56:04;;;;;;;52.40;17.08;;;5.20;99.90;;;-144.05;88.25;57052.75;5045409;28;20086;-80
2023/02/22 07:58:32;;;;;;;37.28;16.75;;;5.30;99.90;;;-144.05;88.29;57040.00;5027921;28;20025;-81
2023/02/22 08:01:00;;;;;;;50.45;18.50;;;5.40;99.90;;;-144.05;88.42;57067.59;5027173;28;20025;-79
2023/02/22 08:03:35;;;;;;;37.83;17.70;;;5.50;99.90;;;-144.05;88.26;57031.50;5048956;28;20504;-81
2023/02/22 08:06:03;;;;;;;34.83;16.58;;;5.50;99.90;;;-144.05;88.17;57031.50;5049283;28;20026;-81
2023/02/22 08:08:30;;;;;;;32.95;16.20;;;5.70;99.90;;;-144.05;87.65;57044.25;5048177;28;20025;-80
2023/02/22 08:10:56;;;;;;;33.30;16.67;;;5.70;99.90;;;-144.05;87.34;57033.63;5049211;22;20064;-84
2023/02/22 08:13:23;;;;;;;30.50;15.93;;;5.70;99.90;;;-144.05;87.00;57046.38;5020285;28;20097;-84
2023/02/22 08:15:52;;;;;;;36.20;16.63;;;5.80;99.90;;;-144.05;86.59;57046.38;5003921;28;20021;-82
2023/02/22 08:18:21;;;;;;;30.92;14.85;;;6.00;99.90;;;-144.05;86.57;57048.50;5004836;28;20057;-83
2023/02/22 08:20:50;;;;;;;35.92;16.08;;;6.00;99.90;;;-144.05;86.26;57035.75;5002836;28;20036;-83
2023/02/22 08:23:19;;;;;;;34.28;16.35;;;6.00;99.90;;;-144.05;86.46;57052.75;5026545;23;20044;-78
2023/02/22 08:25:45;;;;;;;31.77;17.05;;;6.00;99.90;;;-144.05;86.35;57033.63;5028730;28;20030;-78
2023/02/22 08:28:18;;;;;;;29.83;15.98;;;6.10;99.90;;;-144.05;85.82;57016.63;5037886;28;20390;-79
2023/02/22 08:30:45;;;;;;;28.63;15.60;;;6.10;99.90;;;-144.05;85.55;57050.63;5038102;28;20029;-77
2023/02/22 08:33:15;;;;;;;25.92;14.23;;;6.20;99.90;;;-144.05;85.14;57025.13;5037237;28;20036;-76
2023/02/22 08:38:36;;;;;;;29.83;16.10;;;6.40;99.90;;;-144.05;84.84;57040.00;5061509;22;20110;-80
2023/02/22 08:41:03;;;;;;;25.88;14.35;;;6.60;99.90;;;-144.05;84.61;57042.13;5022907;28;20072;-79
2023/02/22 08:43:28;;;;;;;29.70;14.77;;;6.60;99.90;;;-144.05;84.71;57020.88;5041823;28;20037;-79
2023/02/22 08:45:55;;;;;;;24.65;14.15;;;6.80;99.90;;;-144.05;84.60;57027.25;5022917;28;20034;-80
2023/02/22 08:48:21;;;;;;;25.50;14.38;;;7.00;99.90;;;-144.05;84.24;56991.13;5042196;28;20127;-77
2023/02/22 08:50:47;;;;;;;22.48;13.25;;;7.20;99.90;;;-144.05;83.89;57014.50;5042232;28;20036;-79
2023/02/22 08:53:15;;;;;;;23.75;14.40;;;7.50;99.90;;;-144.05;82.77;56978.41;5056907;28;20052;-79
2023/02/22 08:55:42;;;;;;;20.75;13.32;;;7.60;99.90;;;-144.05;82.59;57020.88;5057680;28;20030;-77
2023/02/22 08:58:09;;;;;;;21.85;12.55;;;7.70;99.90;;;-144.05;80.60;57025.13;5056419;28;20029;-78
2023/02/22 09:00:37;;;;;;;18.67;11.93;;;7.90;99.90;;;-144.05;79.33;56991.13;5052157;28;20031;-75
2023/02/22 09:03:08;;;;;;;20.08;12.68;;;8.10;99.90;;;-144.05;76.75;57020.88;5057235;28;20022;-76
2023/02/22 09:05:35;;;;;;;19.40;11.95;;;8.20;99.90;;;-144.05;77.19;56989.00;5040316;28;20103;-78
2023/02/22 09:08:02;;;;;;;20.98;12.57;;;8.40;99.90;;;-144.05;75.27;56984.78;5049166;28;20093;-79
2023/02/22 09:10:32;;;;;;;19.35;12.43;;;8.60;99.90;;;-144.05;73.80;56980.53;5025428;28;20034;-80
2023/02/22 09:13:02;;;;;;;19.63;11.05;;;8.80;99.90;;;-144.05;72.63;57006.00;5042582;28;20025;-82
2023/02/22 09:15:31;;;;;;;18.52;11.95;;;8.90;99.90;;;-144.05;72.98;57020.88;5022744;28;20026;-79
2023/02/22 09:17:58;;;;;;;17.88;12.02;;;9.30;99.90;;;-144.05;71.20;56972.03;5050505;28;20084;-80
2023/02/22 09:20:25;;;;;;;18.50;11.48;;;9.50;99.90;;;-144.05;69.75;57006.00;5034366;28;20035;-78
2023/02/22 09:22:52;;;;;;;17.35;11.63;;;9.70;99.90;;;-144.05;68.71;56989.00;5051159;28;20030;-81
2023/02/22 09:25:20;;;;;;;22.52;12.05;;;9.80;99.90;;;-144.05;68.47;56999.63;5051353;28;20049;-80
2023/02/22 09:27:50;;;;;;;22.10;12.45;;;10.00;99.90;;;-144.05;67.82;56967.78;5053551;28;20021;-78
2023/02/22 09:30:35;;;;;;;20.90;12.07;;;10.30;99.90;;;-144.05;67.09;56999.63;5050908;28;20107;-75
2023/02/22 09:33:09;;;;;;;19.98;11.32;;;10.40;99.90;;;-144.05;66.68;56999.63;5057349;28;20056;-78
2023/02/22 09:35:40;;;;;;;18.70;10.48;;;10.40;99.90;;;-144.05;66.58;57008.13;5040023;28;20032;-78
2023/02/22 09:38:09;;;;;;;18.17;11.77;;;10.40;99.90;;;-144.05;66.12;56989.00;5052812;28;20041;-76
2023/02/22 09:40:43;;;;;;;21.63;12.02;;;10.50;99.90;;;-144.05;66.40;56993.25;5037151;28;20025;-78
2023/02/22 09:43:55;;;;;;;19.42;11.30;;;10.60;99.90;;;-144.05;65.95;56989.00;5020406;28;20329;-78
2023/02/22 09:46:37;;;;;;;18.00;11.40;;;10.80;99.90;;;-144.05;65.04;56993.25;5048396;28;20005;-80
2023/02/22 09:49:37;;;;;;;23.10;11.35;;;11.00;99.90;;;-144.05;64.38;56993.25;5042386;28;20029;-80
2023/02/22 09:52:35;;;;;;;18.85;10.85;;;11.10;99.90;;;-144.05;64.76;56993.25;5017051;28;20045;-81
2023/02/22 09:55:33;;;;;;;23.52;12.38;;;11.40;99.90;;;-144.05;62.94;57010.25;5041374;28;20104;-80
2023/02/22 09:58:32;;;;;;;24.55;11.98;;;11.60;99.90;;;-144.05;62.63;56989.00;5041913;28;20029;-78
2023/02/22 10:01:21;;;;;;;28.63;12.35;;;11.80;99.90;;;-144.05;63.14;56997.50;5031250;28;20026;-81
2023/02/22 10:04:22;;;;;;;22.85;11.90;;;11.80;99.90;;;-144.05;63.58;56980.53;5045492;28;20052;-80
2023/02/22 10:07:14;;;;;;;18.90;11.45;;;12.00;99.90;;;-144.05;62.88;56982.66;5023323;28;20555;-80
2023/02/22 10:09:44;;;;;;;18.17;11.15;;;12.10;99.90;;;-144.05;61.94;56999.63;5039761;28;20040;-79
2023/02/22 10:12:28;;;;;;;18.17;11.43;;;12.30;99.90;;;-144.05;62.25;56989.00;5040434;28;20041;-81
2023/02/22 10:15:24;;;;;;;22.52;12.80;;;12.50;99.90;;;-144.05;62.01;56984.78;5040988;28;20018;-80
2023/02/22 10:18:16;;;;;;;23.30;11.55;;;12.70;99.90;;;-144.05;60.60;56993.25;5039619;28;20029;-79
2023/02/22 10:21:06;;;;;;;19.65;11.52;;;12.80;99.90;;;-144.05;60.41;56995.38;5038764;28;20061;-80
2023/02/22 10:23:50;;;;;;;20.63;11.25;;;12.90;99.90;;;-144.05;59.95;56976.28;5040069;28;20037;-80